Time;durP1;ratioP1;P1;durP2;ratioP2;P2;SDS_P1;SDS_P2;PMS_P1;PMS_P2;Temp;Humidity;BMP_temperature;BMP_pressure;BME280_temperature;BME280_humidity;BME280_pressure;Samples;Min_cycle;Max_cycle;Signal;HPM_P1;HPM_P2
2021/12/23 00:01:56;;;;;;;33.30;20.15;;;;;;;1.43;70.13;101626.09;7387018;19;20014;-58
2021/12/23 00:04:26;;;;;;;31.05;21.55;;;;;;;1.43;70.32;101619.19;7389065;19;20006;-57
2021/12/23 00:06:55;;;;;;;31.85;20.50;;;;;;;1.40;69.85;101626.06;7386597;19;20453;-60
2021/12/23 00:09:32;;;;;;;28.55;19.65;;;;;;;1.37;69.73;101596.78;7387256;19;20011;-61
2021/12/23 00:12:01;;;;;;;34.47;21.88;;;;;;;1.33;70.61;101595.06;7393741;19;20045;-56
2021/12/23 00:14:31;;;;;;;30.27;20.27;;;;;;;1.35;70.63;101592.50;7393463;19;20032;-58
2021/12/23 00:17:20;;;;;;;30.60;20.15;;;;;;;1.35;70.02;101602.81;7396579;19;20018;-55
2021/12/23 00:20:00;;;;;;;32.65;21.42;;;;;;;1.28;70.61;101594.16;7396934;19;20105;-55
2021/12/23 00:25:10;;;;;;;34.42;21.27;;;;;;;1.26;70.84;101613.94;7399615;19;20027;-54
2021/12/23 00:27:40;;;;;;;33.55;21.83;;;;;;;1.27;70.86;101613.06;7395815;19;20014;-58
2021/12/23 00:30:10;;;;;;;34.53;21.35;;;;;;;1.30;70.63;101604.50;7394413;19;20038;-57
2021/12/23 00:32:42;;;;;;;34.15;21.60;;;;;;;1.30;70.53;101589.84;7391924;19;20015;-57
2021/12/23 00:35:12;;;;;;;33.70;22.00;;;;;;;1.28;70.41;101581.25;7394539;19;20018;-52
2021/12/23 00:37:44;;;;;;;31.27;20.95;;;;;;;1.27;70.33;101574.34;7393858;19;20253;-57
2021/12/23 00:40:16;;;;;;;33.58;21.67;;;;;;;1.27;70.39;101587.25;7394700;19;20029;-59
2021/12/23 00:42:46;;;;;;;33.88;22.23;;;;;;;1.28;70.42;101588.16;7392738;19;20416;-56
2021/12/23 00:45:15;;;;;;;31.40;20.95;;;;;;;1.27;70.73;101584.69;7395059;19;20545;-60
2021/12/23 00:47:47;;;;;;;32.38;21.50;;;;;;;1.28;70.70;101578.66;7393489;19;20015;-56
2021/12/23 00:50:16;;;;;;;34.25;21.77;;;;;;;1.26;70.88;101569.19;7398948;19;20022;-58
2021/12/23 00:52:54;;;;;;;32.22;21.30;;;;;;;1.30;70.44;101561.44;7393368;19;20826;-57
2021/12/23 00:55:23;;;;;;;33.47;21.70;;;;;;;1.28;70.11;101546.84;7392696;19;20014;-58
2021/12/23 00:57:52;;;;;;;37.25;22.30;;;;;;;1.29;70.35;101567.50;7396240;19;20019;-58
2021/12/23 01:00:21;;;;;;;30.52;20.20;;;;;;;1.31;70.25;101549.44;7395816;19;20014;-56
2021/12/23 01:02:52;;;;;;;31.70;21.05;;;;;;;1.33;69.96;101551.16;7392394;19;20480;-58
2021/12/23 01:05:23;;;;;;;34.47;22.00;;;;;;;1.32;69.98;101541.69;7398131;19;20014;-58
2021/12/23 01:07:52;;;;;;;31.58;21.27;;;;;;;1.33;70.00;101520.19;7391494;19;20491;-59
2021/12/23 01:10:23;;;;;;;32.13;21.25;;;;;;;1.29;69.86;101536.50;7396622;19;20003;-59
2021/12/23 01:12:56;;;;;;;33.42;22.02;;;;;;;1.33;69.94;101534.78;7395420;19;20730;-59
2021/12/23 01:18:18;;;;;;;32.25;20.30;;;;;;;1.34;69.72;101542.53;7395655;19;20127;-59
2021/12/23 01:21:03;;;;;;;31.25;21.20;;;;;;;1.29;69.79;101546.84;7396590;19;20504;-55
2021/12/23 01:23:38;;;;;;;32.63;21.48;;;;;;;1.30;69.94;101524.47;7397062;19;20495;-59
2021/12/23 01:26:07;;;;;;;33.55;21.42;;;;;;;1.33;69.78;101522.78;7398113;19;20018;-57
2021/12/23 01:28:36;;;;;;;34.05;21.17;;;;;;;1.36;69.97;101509.88;7395119;19;20081;-57
2021/12/23 01:31:05;;;;;;;31.58;21.02;;;;;;;1.41;69.92;101524.53;7402637;19;20018;-56
2021/12/23 01:33:37;;;;;;;32.05;21.23;;;;;;;1.41;69.74;101520.22;7402929;19;20030;-55
2021/12/23 01:36:06;;;;;;;33.25;21.85;;;;;;;1.38;69.67;101507.28;7404000;19;20030;-56
2021/12/23 01:38:35;;;;;;;33.13;21.95;;;;;;;1.40;69.82;101505.56;7398386;19;20021;-54
2021/12/23 01:41:04;;;;;;;34.20;21.98;;;;;;;1.40;69.66;101510.72;7399059;19;20006;-52
2021/12/23 01:43:33;;;;;;;32.65;21.90;;;;;;;1.34;70.01;101536.53;7398376;19;20054;-55
2021/12/23 01:46:03;;;;;;;32.72;21.73;;;;;;;1.33;70.01;101538.25;7393145;19;20086;-51
2021/12/23 01:48:32;;;;;;;32.50;21.42;;;;;;;1.29;70.08;101549.41;7393735;19;20039;-56
2021/12/23 01:51:04;;;;;;;33.70;21.73;;;;;;;1.35;70.07;101538.25;7395122;19;20038;-59
2021/12/23 01:53:33;;;;;;;33.15;21.98;;;;;;;1.33;70.01;101511.56;7390404;19;20119;-56
2021/12/23 01:56:03;;;;;;;31.85;21.13;;;;;;;1.30;69.77;101507.22;7388428;19;20030;-54
2021/12/23 01:58:32;;;;;;;34.38;22.40;;;;;;;1.25;69.44;101505.47;7390472;19;20460;-57
2021/12/23 02:01:01;;;;;;;36.50;23.15;;;;;;;1.12;69.83;101500.28;7389165;19;20010;-59
2021/12/23 02:03:30;;;;;;;33.78;22.80;;;;;;;1.09;70.17;101489.06;7389211;19;20014;-57
2021/12/23 02:05:59;;;;;;;34.63;22.48;;;;;;;1.12;70.21;101491.66;7391922;19;20094;-56
2021/12/23 02:08:30;;;;;;;36.35;23.13;;;;;;;1.12;70.08;101481.31;7391912;19;20018;-57
2021/12/23 02:11:01;;;;;;;34.92;22.40;;;;;;;1.14;70.33;101489.97;7388752;19;20044;-56
2021/12/23 02:13:30;;;;;;;35.25;23.15;;;;;;;1.20;70.10;101493.44;7389427;19;20014;-59
2021/12/23 02:16:00;;;;;;;34.55;22.65;;;;;;;1.19;70.16;101478.81;7387764;19;20017;-56
2021/12/23 02:18:30;;;;;;;35.38;23.13;;;;;;;1.20;70.32;101470.22;7389245;19;20023;-55
2021/12/23 02:21:02;;;;;;;35.95;22.50;;;;;;;1.13;70.07;101452.97;7392312;19;20753;-57
2021/12/23 02:23:31;;;;;;;34.97;22.30;;;;;;;1.12;70.11;101461.56;7389568;19;20003;-57
2021/12/23 02:26:00;;;;;;;33.58;22.10;;;;;;;1.08;70.14;101461.53;7388448;19;20796;-55
2021/12/23 02:28:29;;;;;;;37.63;23.35;;;;;;;1.02;70.45;101452.91;7386847;19;20049;-58
2021/12/23 02:30:58;;;;;;;35.55;23.42;;;;;;;0.98;70.35;101451.16;7387797;19;20054;-57
2021/12/23 02:33:30;;;;;;;33.28;22.35;;;;;;;1.01;70.40;101461.47;7386084;19;20111;-58
2021/12/23 02:36:01;;;;;;;37.85;23.15;;;;;;;0.99;70.30;101442.56;7389295;19;20363;-59
2021/12/23 02:38:30;;;;;;;35.87;22.57;;;;;;;0.91;70.29;101444.22;7388019;19;20015;-59
2021/12/23 02:40:59;;;;;;;38.15;23.45;;;;;;;0.95;70.42;101443.41;7387304;19;20344;-58
2021/12/23 02:43:30;;;;;;;35.63;22.75;;;;;;;0.97;70.74;101444.25;7387987;19;20014;-55
2021/12/23 02:46:02;;;;;;;35.83;22.80;;;;;;;0.99;70.82;101432.25;7389287;19;20134;-56
2021/12/23 02:48:34;;;;;;;31.25;21.63;;;;;;;1.02;70.56;101444.31;7390176;19;20029;-57
2021/12/23 02:51:08;;;;;;;35.05;23.02;;;;;;;1.01;70.53;101440.84;7393162;19;20090;-57
2021/12/23 02:53:38;;;;;;;36.70;22.83;;;;;;;1.06;70.64;101435.72;7389363;19;20464;-58
2021/12/23 02:56:14;;;;;;;37.75;24.08;;;;;;;1.04;70.74;101443.44;7387628;19;20014;-55
2021/12/23 02:58:44;;;;;;;36.95;23.75;;;;;;;1.06;70.75;101440.88;7387365;19;20015;-54
2021/12/23 03:01:13;;;;;;;36.38;23.35;;;;;;;1.04;70.47;101435.69;7389000;19;20018;-54
2021/12/23 03:03:43;;;;;;;38.55;24.30;;;;;;;1.03;70.82;101427.94;7391183;19;20019;-57
2021/12/23 03:06:18;;;;;;;37.22;22.67;;;;;;;1.06;70.90;101432.25;7394916;19;20146;-58
2021/12/23 03:08:51;;;;;;;35.40;22.83;;;;;;;1.08;70.42;101439.16;7390246;19;20033;-57
2021/12/23 03:11:23;;;;;;;33.58;23.15;;;;;;;1.06;70.64;101437.44;7388545;19;20021;-57
2021/12/23 03:13:54;;;;;;;37.40;24.40;;;;;;;1.09;70.69;101432.28;7389960;19;20014;-55
2021/12/23 03:16:26;;;;;;;34.00;22.45;;;;;;;1.07;70.41;101428.84;7387162;19;20317;-58
2021/12/23 03:18:55;;;;;;;37.13;22.95;;;;;;;1.10;70.47;101416.78;7387223;19;20134;-57
2021/12/23 03:21:27;;;;;;;36.40;23.63;;;;;;;1.08;70.41;101421.09;7388426;19;20021;-55
2021/12/23 03:23:56;;;;;;;38.97;23.13;;;;;;;1.04;70.24;101403.88;7389748;19;20104;-57
2021/12/23 03:26:25;;;;;;;35.63;23.15;;;;;;;1.03;70.43;101392.69;7387686;19;20099;-60
2021/12/23 03:28:54;;;;;;;34.80;23.17;;;;;;;1.04;70.74;101378.06;7386797;19;20432;-58
2021/12/23 03:31:23;;;;;;;34.28;23.38;;;;;;;0.95;70.30;101378.88;7386821;19;20014;-60
2021/12/23 03:33:52;;;;;;;35.17;23.55;;;;;;;0.85;70.48;101382.28;7387987;19;20015;-58
2021/12/23 03:36:21;;;;;;;35.72;23.73;;;;;;;0.79;70.97;101387.41;7389261;19;20011;-59
2021/12/23 03:38:53;;;;;;;39.80;24.75;;;;;;;0.79;70.88;101372.81;7387353;19;20011;-59
2021/12/23 03:41:22;;;;;;;34.72;22.02;;;;;;;0.82;70.85;101351.31;7386552;19;20082;-60
2021/12/23 03:43:51;;;;;;;39.72;25.23;;;;;;;0.77;71.02;101353.00;7387499;19;20010;-60
2021/12/23 03:46:20;;;;;;;35.83;23.17;;;;;;;0.73;71.35;101356.41;7393152;19;20053;-58
2021/12/23 03:48:49;;;;;;;35.67;22.73;;;;;;;0.76;71.45;101356.44;7394055;19;20483;-59
2021/12/23 03:51:19;;;;;;;37.60;25.20;;;;;;;0.77;71.66;101356.44;7394899;19;20022;-59
2021/12/23 03:53:48;;;;;;;36.97;24.05;;;;;;;0.70;71.54;101349.53;7393948;19;20018;-59
2021/12/23 03:56:20;;;;;;;36.75;23.20;;;;;;;0.72;71.49;101342.66;7389698;19;20015;-56
2021/12/23 03:58:49;;;;;;;38.65;24.58;;;;;;;0.71;71.65;101342.66;7393007;19;20018;-59
2021/12/23 04:01:18;;;;;;;37.42;24.08;;;;;;;0.72;71.55;101345.25;7395791;19;20331;-52
2021/12/23 04:03:49;;;;;;;36.90;23.92;;;;;;;0.77;71.60;101327.22;7393774;19;20018;-55
2021/12/23 04:06:18;;;;;;;37.67;24.63;;;;;;;0.74;71.35;101325.47;7392858;19;20011;-57
2021/12/23 04:08:47;;;;;;;38.67;24.42;;;;;;;0.74;71.61;101319.47;7393361;19;20018;-56
2021/12/23 04:11:18;;;;;;;36.20;23.90;;;;;;;0.76;71.66;101308.31;7392065;19;20082;-58
2021/12/23 04:13:47;;;;;;;39.57;24.77;;;;;;;0.78;71.75;101295.41;7393254;19;20014;-56
2021/12/23 04:16:16;;;;;;;37.72;24.58;;;;;;;0.80;71.58;101281.66;7392929;19;20290;-56
2021/12/23 04:18:47;;;;;;;38.13;24.77;;;;;;;0.75;71.42;101280.78;7393050;19;20021;-59
2021/12/23 04:21:16;;;;;;;35.47;23.25;;;;;;;0.74;71.50;101288.50;7391494;19;20125;-60
2021/12/23 04:23:45;;;;;;;36.95;24.52;;;;;;;0.78;71.57;101285.09;7392194;19;20033;-56
2021/12/23 04:26:14;;;;;;;39.63;24.85;;;;;;;0.72;71.41;101277.31;7389522;19;20014;-57
2021/12/23 04:28:48;;;;;;;39.08;24.85;;;;;;;0.71;71.36;101296.25;7392787;19;20049;-57
2021/12/23 04:31:20;;;;;;;42.50;24.63;;;;;;;0.70;71.84;101282.47;7395581;19;20018;-58
2021/12/23 04:33:53;;;;;;;38.60;25.25;;;;;;;0.72;71.94;101272.16;7392987;19;20021;-57
2021/12/23 04:36:24;;;;;;;40.53;23.85;;;;;;;0.72;71.83;101278.19;7390628;19;20087;-60
2021/12/23 04:38:53;;;;;;;38.20;24.95;;;;;;;0.69;72.01;101271.31;7390328;19;20015;-56
2021/12/23 04:41:22;;;;;;;37.38;24.40;;;;;;;0.79;71.80;101271.31;7392529;19;20022;-61
2021/12/23 04:43:54;;;;;;;39.00;24.95;;;;;;;0.77;71.92;101263.56;7393237;19;20010;-59
2021/12/23 04:46:23;;;;;;;41.45;25.35;;;;;;;0.81;71.79;101282.53;7395333;19;20011;-54
2021/12/23 04:48:52;;;;;;;39.22;24.98;;;;;;;0.85;71.58;101284.25;7392285;19;20025;-58
2021/12/23 04:51:23;;;;;;;37.72;24.08;;;;;;;0.80;71.63;101294.56;7390799;19;20030;-56
2021/12/23 04:53:52;;;;;;;43.20;26.77;;;;;;;0.78;71.58;101295.41;7392679;19;20475;-53
2021/12/23 04:56:21;;;;;;;37.03;24.73;;;;;;;0.76;71.47;101298.00;7387723;19;20007;-59
2021/12/23 04:58:50;;;;;;;42.42;27.08;;;;;;;0.76;71.68;101290.25;7392087;19;20025;-60
2021/12/23 05:01:29;;;;;;;42.65;26.65;;;;;;;0.69;71.41;101284.19;7392985;19;20351;-60
2021/12/23 05:03:58;;;;;;;40.35;25.23;;;;;;;0.65;72.12;101281.59;7390580;19;20021;-57
2021/12/23 05:06:28;;;;;;;40.80;25.50;;;;;;;0.67;72.21;101278.19;7392325;19;20011;-58
2021/12/23 05:08:57;;;;;;;44.47;27.40;;;;;;;0.68;72.09;101282.47;7395107;19;20022;-59
2021/12/23 05:11:26;;;;;;;42.15;26.83;;;;;;;0.66;72.40;101275.59;7391315;19;20039;-58
2021/12/23 05:13:55;;;;;;;40.83;26.17;;;;;;;0.66;72.46;101270.44;7393550;19;20320;-56
2021/12/23 05:16:26;;;;;;;39.72;25.90;;;;;;;0.69;72.36;101258.41;7394209;19;20022;-57
2021/12/23 05:18:55;;;;;;;45.60;27.10;;;;;;;0.68;72.01;101259.25;7393525;19;20018;-57
2021/12/23 05:21:24;;;;;;;43.45;26.48;;;;;;;0.64;71.90;101259.25;7392449;19;20021;-57
2021/12/23 05:23:53;;;;;;;41.65;26.17;;;;;;;0.61;72.14;101257.50;7392745;19;20146;-60
2021/12/23 05:26:22;;;;;;;42.67;27.35;;;;;;;0.60;71.69;101242.91;7392612;19;20007;-57
2021/12/23 05:28:51;;;;;;;45.90;28.08;;;;;;;0.61;72.14;101241.19;7393404;19;20027;-54
2021/12/23 05:31:20;;;;;;;44.10;27.20;;;;;;;0.66;72.08;101239.50;7395729;19;20479;-56
2021/12/23 05:33:52;;;;;;;43.15;26.83;;;;;;;0.73;72.17;101236.06;7393724;19;20472;-59
2021/12/23 05:36:21;;;;;;;46.97;27.93;;;;;;;0.74;71.46;101211.13;7390686;19;20006;-57
2021/12/23 05:38:49;;;;;;;45.45;28.35;;;;;;;0.74;71.61;101219.72;7392019;19;20239;-58
2021/12/23 05:41:18;;;;;;;50.17;29.30;;;;;;;0.73;71.40;101220.59;7389951;19;20079;-57
2021/12/23 05:43:47;;;;;;;44.80;28.30;;;;;;;0.73;71.46;101232.63;7390207;19;20011;-58
2021/12/23 05:46:16;;;;;;;47.67;28.42;;;;;;;0.67;71.52;101225.72;7392072;19;20019;-54
2021/12/23 05:48:45;;;;;;;45.13;27.95;;;;;;;0.64;71.64;101220.56;7391147;19;20010;-57
2021/12/23 05:51:17;;;;;;;46.33;28.92;;;;;;;0.64;71.75;101205.09;7390568;19;20074;-59
2021/12/23 05:53:46;;;;;;;46.92;28.10;;;;;;;0.67;71.42;101218.88;7391723;19;20009;-59
2021/12/23 05:56:15;;;;;;;44.40;27.83;;;;;;;0.61;71.30;101213.66;7394212;19;20479;-54
2021/12/23 05:58:44;;;;;;;45.13;28.00;;;;;;;0.61;71.30;101212.81;7394661;19;20011;-53
2021/12/23 06:01:13;;;;;;;48.60;29.63;;;;;;;0.56;71.35;101219.66;7397497;19;20019;-56
2021/12/23 06:03:46;;;;;;;48.50;29.02;;;;;;;0.62;72.01;101219.69;7399335;19;20014;-54
2021/12/23 06:06:18;;;;;;;50.17;29.42;;;;;;;0.63;71.83;101221.41;7393666;19;20052;-53
2021/12/23 06:08:47;;;;;;;42.67;27.33;;;;;;;0.71;71.91;101211.97;7391197;19;20009;-52
2021/12/23 06:11:16;;;;;;;50.15;30.23;;;;;;;0.74;71.50;101204.25;7392001;19;20011;-57
2021/12/23 06:13:45;;;;;;;46.38;29.00;;;;;;;0.75;71.61;101187.06;7392102;19;20019;-57
2021/12/23 06:16:14;;;;;;;46.25;28.90;;;;;;;0.72;71.37;101194.78;7393264;19;20025;-58
2021/12/23 06:18:43;;;;;;;45.88;28.13;;;;;;;0.73;71.40;101189.66;7390095;19;20025;-57
2021/12/23 06:21:12;;;;;;;49.40;29.60;;;;;;;0.74;71.57;101193.94;7388364;19;20014;-56
2021/12/23 06:23:43;;;;;;;48.60;29.55;;;;;;;0.66;70.91;101200.81;7391273;19;20042;-57
2021/12/23 06:26:12;;;;;;;46.55;28.52;;;;;;;0.63;71.20;101181.03;7389178;19;20014;-55
2021/12/23 06:28:41;;;;;;;47.38;28.88;;;;;;;0.65;71.35;101174.13;7386597;19;20019;-57
2021/12/23 06:31:10;;;;;;;49.00;30.52;;;;;;;0.62;71.35;101170.72;7391677;19;20082;-56
2021/12/23 06:33:39;;;;;;;49.35;29.55;;;;;;;0.59;71.54;101173.25;7388518;19;20023;-60
2021/12/23 06:36:09;;;;;;;48.03;30.38;;;;;;;0.57;71.80;101175.81;7388398;19;20002;-54
2021/12/23 06:38:38;;;;;;;48.40;30.35;;;;;;;0.55;71.72;101167.25;7389285;19;20021;-58
2021/12/23 06:41:10;;;;;;;51.92;30.13;;;;;;;0.52;71.69;101159.50;7389272;19;20015;-58
2021/12/23 06:43:39;;;;;;;47.97;29.75;;;;;;;0.51;71.84;101171.50;7390727;19;20073;-56
2021/12/23 06:46:07;;;;;;;51.88;29.42;;;;;;;0.53;72.06;101179.28;7393432;19;20019;-58
2021/12/23 06:48:36;;;;;;;50.70;30.45;;;;;;;0.54;72.01;101174.97;7388772;19;20026;-58
2021/12/23 06:51:06;;;;;;;50.38;29.70;;;;;;;0.56;71.84;101184.44;7388919;19;20020;-56
2021/12/23 06:53:35;;;;;;;48.10;29.73;;;;;;;0.61;71.93;101181.88;7392245;19;20017;-59
2021/12/23 06:56:04;;;;;;;52.75;30.40;;;;;;;0.63;71.81;101180.13;7390853;19;20535;-55
2021/12/23 06:58:38;;;;;;;49.85;29.00;;;;;;;0.68;71.42;101191.34;7391504;19;20380;-56
2021/12/23 07:01:07;;;;;;;52.50;30.08;;;;;;;0.64;71.22;101184.44;7391357;19;20336;-57
2021/12/23 07:03:54;;;;;;;50.55;30.65;;;;;;;0.57;71.31;101180.13;7390728;19;20482;-58
2021/12/23 07:06:24;;;;;;;48.72;29.63;;;;;;;0.55;71.65;101180.13;7389409;19;20350;-58
2021/12/23 07:08:54;;;;;;;50.17;28.80;;;;;;;0.53;71.69;101189.59;7392807;19;20021;-59
2021/12/23 07:11:23;;;;;;;47.72;29.42;;;;;;;0.55;72.01;101180.13;7391820;19;20135;-59
2021/12/23 07:13:54;;;;;;;50.40;30.33;;;;;;;0.61;72.05;101177.56;7389296;19;20022;-57
2021/12/23 07:16:23;;;;;;;51.60;29.73;;;;;;;0.61;71.91;101180.13;7390412;19;20014;-53
2021/12/23 07:18:52;;;;;;;50.83;30.55;;;;;;;0.64;72.21;101189.59;7392716;19;20473;-56
2021/12/23 07:21:21;;;;;;;49.72;29.48;;;;;;;0.65;71.38;101196.50;7396595;19;20487;-58
2021/12/23 07:23:50;;;;;;;50.63;29.20;;;;;;;0.60;71.63;101205.94;7397863;19;20124;-56
2021/12/23 07:26:19;;;;;;;51.67;29.75;;;;;;;0.59;72.13;101196.47;7400618;19;20030;-54
2021/12/23 07:28:48;;;;;;;48.75;29.38;;;;;;;0.62;72.69;101194.75;7398093;19;20476;-58
2021/12/23 07:31:19;;;;;;;54.00;31.33;;;;;;;0.71;72.54;101196.50;7397054;19;20014;-53
2021/12/23 07:33:48;;;;;;;52.00;30.23;;;;;;;0.78;72.37;101189.66;7399188;19;20014;-60
2021/12/23 07:36:22;;;;;;;56.20;32.80;;;;;;;0.82;72.17;101183.66;7395552;19;20086;-57
2021/12/23 07:38:51;;;;;;;62.33;34.60;;;;;;;0.88;72.30;101185.38;7397490;19;20007;-60
2021/12/23 07:41:20;;;;;;;50.85;30.50;;;;;;;0.92;71.63;101172.47;7396532;19;20022;-61
2021/12/23 07:43:59;;;;;;;51.65;29.23;;;;;;;0.93;71.77;101181.06;7394891;19;20025;-57
2021/12/23 07:46:34;;;;;;;53.55;30.77;;;;;;;0.85;71.64;101191.38;7391186;19;20348;-59
2021/12/23 07:49:03;;;;;;;52.55;29.50;;;;;;;0.84;71.82;101176.75;7395223;19;20025;-61
2021/12/23 07:51:32;;;;;;;49.60;29.50;;;;;;;0.82;71.77;101178.50;7394982;19;20029;-55
2021/12/23 07:54:01;;;;;;;51.13;30.42;;;;;;;0.85;72.14;101179.34;7395578;19;20022;-58
2021/12/23 07:56:30;;;;;;;51.35;29.63;;;;;;;0.86;71.96;101186.22;7394505;19;20029;-60
2021/12/23 07:58:59;;;;;;;52.05;30.23;;;;;;;0.84;72.15;101189.66;7394347;19;20014;-60
2021/12/23 08:01:31;;;;;;;53.22;31.77;;;;;;;0.84;72.06;101185.34;7391430;19;20466;-56
2021/12/23 08:03:59;;;;;;;50.15;29.30;;;;;;;0.88;72.50;101193.97;7394614;19;20020;-59
2021/12/23 08:06:29;;;;;;;45.30;27.50;;;;;;;0.89;72.70;101192.25;7393191;19;20045;-56
2021/12/23 08:08:58;;;;;;;51.63;29.50;;;;;;;0.90;72.32;101183.66;7391361;19;20326;-61
2021/12/23 08:11:27;;;;;;;52.30;30.95;;;;;;;0.90;72.49;101181.91;7395362;19;20119;-59
2021/12/23 08:13:55;;;;;;;49.75;29.85;;;;;;;0.97;72.55;101169.91;7395689;19;20014;-58
2021/12/23 08:16:24;;;;;;;51.05;30.42;;;;;;;0.98;72.42;101169.91;7395401;19;20010;-60
2021/12/23 08:18:56;;;;;;;51.00;30.02;;;;;;;0.98;72.23;101161.31;7396876;19;20016;-56
2021/12/23 08:21:28;;;;;;;50.33;29.90;;;;;;;1.00;72.32;101162.16;7394151;19;20130;-59
2021/12/23 08:23:57;;;;;;;50.58;29.88;;;;;;;1.02;72.10;101158.72;7398917;19;20022;-55
2021/12/23 08:26:28;;;;;;;51.10;30.52;;;;;;;1.01;72.22;101163.88;7399043;19;20022;-58
2021/12/23 08:28:57;;;;;;;51.70;30.30;;;;;;;1.01;72.40;101164.72;7397855;19;20026;-60
2021/12/23 08:31:27;;;;;;;50.78;30.38;;;;;;;1.02;72.16;101163.03;7396064;19;20014;-62
2021/12/23 08:33:58;;;;;;;49.55;29.55;;;;;;;0.98;72.61;101164.72;7398086;19;20019;-59
2021/12/23 08:36:27;;;;;;;53.65;31.08;;;;;;;0.91;72.06;101163.00;7396560;19;20015;-58
2021/12/23 08:38:56;;;;;;;54.80;31.92;;;;;;;0.83;71.97;101149.22;7397774;19;20014;-57
2021/12/23 08:41:25;;;;;;;49.63;28.75;;;;;;;0.75;72.47;101133.75;7399427;19;20031;-57
2021/12/23 08:43:54;;;;;;;49.92;29.27;;;;;;;0.80;72.72;101120.84;7395598;19;20014;-61
2021/12/23 08:46:23;;;;;;;50.60;30.00;;;;;;;0.80;72.38;101121.75;7395581;19;20018;-59
2021/12/23 08:48:52;;;;;;;51.33;30.55;;;;;;;0.84;72.65;101107.09;7396672;19;20029;-59
2021/12/23 08:51:23;;;;;;;52.35;30.35;;;;;;;0.91;72.92;101114.00;7395158;19;20090;-61
2021/12/23 08:53:52;;;;;;;49.78;29.63;;;;;;;0.99;72.80;101108.84;7392024;19;20380;-61
2021/12/23 08:56:21;;;;;;;50.92;30.13;;;;;;;1.04;72.74;101107.97;7396348;19;20029;-59
2021/12/23 08:58:50;;;;;;;50.42;29.77;;;;;;;1.10;72.51;101107.09;7394576;19;20590;-60
2021/12/23 09:01:19;;;;;;;52.47;30.52;;;;;;;1.10;72.18;101109.69;7393859;19;20394;-60
2021/12/23 09:03:48;;;;;;;50.00;29.88;;;;;;;1.06;72.23;101108.00;7390745;19;20007;-59
2021/12/23 09:06:17;;;;;;;48.67;30.08;;;;;;;1.00;72.27;101093.38;7392691;19;20118;-60
2021/12/23 09:08:48;;;;;;;51.78;30.17;;;;;;;0.98;72.33;101083.91;7393318;19;20089;-55
2021/12/23 09:11:17;;;;;;;54.53;31.52;;;;;;;0.98;72.74;101069.25;7367316;19;20118;-58
2021/12/23 09:13:46;;;;;;;50.28;30.48;;;;;;;1.02;72.45;101060.66;7392020;19;20049;-59
2021/12/23 09:16:15;;;;;;;49.63;29.70;;;;;;;1.06;72.58;101048.63;7393499;19;20480;-57
2021/12/23 09:18:44;;;;;;;53.10;30.77;;;;;;;1.13;72.60;101050.34;7392645;19;20018;-54
2021/12/23 09:21:13;;;;;;;52.45;30.58;;;;;;;1.17;72.89;101044.28;7392588;19;20022;-59
2021/12/23 09:23:42;;;;;;;56.88;31.13;;;;;;;1.25;72.59;101040.81;7393282;19;20021;-56
2021/12/23 09:26:13;;;;;;;52.95;29.58;;;;;;;1.23;72.82;101034.81;7390642;19;20014;-58
2021/12/23 09:28:55;;;;;;;51.50;30.10;;;;;;;1.34;72.52;101040.81;7395085;19;20025;-57
2021/12/23 09:34:06;;;;;;;55.57;32.67;;;;;;;1.34;71.56;101052.00;7393215;19;20007;-60
2021/12/23 09:36:35;;;;;;;54.22;31.45;;;;;;;1.23;71.53;101053.75;7392718;19;20261;-60
2021/12/23 09:39:06;;;;;;;54.67;30.95;;;;;;;1.11;72.50;101051.19;7391277;19;20029;-60
2021/12/23 09:41:40;;;;;;;53.03;31.40;;;;;;;1.14;72.66;101046.88;7395573;19;20122;-61
2021/12/23 09:44:11;;;;;;;53.17;30.83;;;;;;;1.15;72.59;101038.28;7392021;19;20413;-58
2021/12/23 09:46:40;;;;;;;54.53;32.05;;;;;;;1.20;72.65;101039.16;7393071;19;20124;-61
2021/12/23 09:49:10;;;;;;;53.05;30.88;;;;;;;1.19;72.69;101037.41;7395318;19;20098;-56
2021/12/23 09:51:39;;;;;;;54.17;31.52;;;;;;;1.20;72.68;101033.97;7394563;19;20015;-60
2021/12/23 09:54:10;;;;;;;53.97;31.58;;;;;;;1.21;72.84;101030.50;7392669;19;20011;-59
2021/12/23 09:56:42;;;;;;;55.42;32.30;;;;;;;1.27;72.82;101027.06;7396656;19;20026;-59
2021/12/23 09:59:11;;;;;;;58.17;32.80;;;;;;;1.31;72.71;101015.88;7392824;19;20014;-58
2021/12/23 10:01:40;;;;;;;52.60;30.48;;;;;;;1.36;72.75;101013.25;7392360;19;20021;-58
2021/12/23 10:04:08;;;;;;;54.35;30.90;;;;;;;1.37;72.69;101008.09;7393736;19;20006;-55
2021/12/23 10:06:38;;;;;;;61.08;33.90;;;;;;;1.41;72.66;101000.38;7393619;19;20010;-58
2021/12/23 10:09:07;;;;;;;59.50;34.45;;;;;;;1.40;72.55;101002.06;7393407;19;20344;-55
2021/12/23 10:11:54;;;;;;;57.75;31.77;;;;;;;1.45;72.53;101004.63;7393463;19;20026;-58
2021/12/23 10:31:05;;;;;;;52.90;30.67;;;;;;;1.60;73.20;100981.31;7387688;19;20078;-58
2021/12/23 10:33:48;;;;;;;54.45;30.35;;;;;;;1.65;72.64;100971.00;7388692;19;20090;-58
2021/12/23 10:38:58;;;;;;;52.88;30.95;;;;;;;1.68;72.63;100958.91;7388411;19;20021;-58
2021/12/23 10:41:30;;;;;;;53.58;31.00;;;;;;;1.69;72.62;100945.13;7389828;19;20512;-57
2021/12/23 10:44:02;;;;;;;54.10;31.27;;;;;;;1.68;72.61;100946.00;7388152;19;20131;-58
2021/12/23 10:46:38;;;;;;;55.47;31.00;;;;;;;1.71;72.93;100945.97;7388111;19;20070;-60
2021/12/23 10:49:23;;;;;;;55.17;30.98;;;;;;;1.76;73.21;100934.75;7389378;19;20494;-61
2021/12/23 10:52:01;;;;;;;52.70;30.90;;;;;;;1.78;73.22;100927.84;7388681;19;20441;-57
2021/12/23 11:00:11;;;;;;;;;;;;;;;1.81;73.14;100908.03;7390049;19;20135;-59
2021/12/23 11:03:04;;;;;;;56.72;31.67;;;;;;;1.84;73.46;100907.16;7388034;19;19998;-59
2021/12/23 11:05:37;;;;;;;;;;;;;;;1.87;73.13;100907.13;7390286;19;20018;-59
2021/12/23 11:08:17;;;;;;;52.58;30.65;;;;;;;1.89;73.25;100900.22;7389065;19;19918;-61
2021/12/23 11:11:17;;;;;;;57.50;30.98;;;;;;;1.90;73.02;100887.28;7391089;19;20472;-61
2021/12/23 11:31:06;;;;;;;52.38;29.95;;;;;;;2.41;73.27;100866.19;7384368;19;20035;-59
2021/12/23 11:39:05;;;;;;;51.95;30.35;;;;;;;2.42;73.34;100844.63;7386862;19;20345;-61
2021/12/23 11:41:38;;;;;;;53.90;30.27;;;;;;;2.47;73.62;100830.78;7389952;19;20094;-59
2021/12/23 11:44:09;;;;;;;56.22;31.30;;;;;;;2.52;73.23;100832.47;7387523;19;20015;-59
2021/12/23 11:46:44;;;;;;;48.95;28.83;;;;;;;2.54;73.48;100824.69;7387779;19;20030;-60
2021/12/23 11:49:15;;;;;;;56.78;31.83;;;;;;;2.60;73.61;100822.00;7388638;19;20014;-60
2021/12/23 11:51:53;;;;;;;50.75;29.95;;;;;;;2.66;73.14;100827.09;7386934;19;20531;-61
2021/12/23 11:54:28;;;;;;;49.15;29.77;;;;;;;2.63;72.91;100814.22;7386955;19;20047;-61
2021/12/23 11:57:03;;;;;;;50.03;28.80;;;;;;;2.64;73.47;100821.09;7390952;19;20022;-60
2021/12/23 11:59:33;;;;;;;53.22;30.70;;;;;;;2.72;73.24;100810.66;7387442;19;20026;-58
2021/12/23 12:02:02;;;;;;;53.40;30.27;;;;;;;2.70;73.52;100807.25;7385638;19;20018;-54
2021/12/23 12:04:35;;;;;;;53.53;30.30;;;;;;;2.76;73.51;100802.00;7386635;19;20026;-58
2021/12/23 12:07:15;;;;;;;49.53;28.95;;;;;;;2.77;73.46;100798.53;7391181;19;20015;-60
2021/12/23 12:09:57;;;;;;;52.50;29.70;;;;;;;2.83;73.27;100788.09;7391491;19;20081;-58
2021/12/23 12:12:26;;;;;;;50.05;28.30;;;;;;;2.83;73.05;100780.34;7392376;19;20083;-56
2021/12/23 12:14:56;;;;;;;49.72;29.65;;;;;;;2.86;72.56;100775.13;7393511;19;20089;-57
2021/12/23 12:17:42;;;;;;;48.28;28.52;;;;;;;2.82;73.01;100770.00;7391188;19;20015;-57
2021/12/23 12:20:21;;;;;;;46.75;27.63;;;;;;;2.86;72.89;100766.50;7394577;19;20085;-57
2021/12/23 12:23:02;;;;;;;51.53;29.77;;;;;;;2.86;73.23;100756.16;7391580;19;20018;-59
2021/12/23 12:26:01;;;;;;;53.17;29.73;;;;;;;2.87;73.23;100752.69;7395174;19;20022;-58
2021/12/23 12:28:36;;;;;;;49.45;27.60;;;;;;;2.90;73.36;100739.72;7393466;19;20011;-60
2021/12/23 12:31:08;;;;;;;54.38;29.70;;;;;;;2.93;73.24;100742.25;7392370;19;20102;-60